sensor_id;sensor_type;location;lat;lon;timestamp;P1;durP1;ratioP1;P2;durP2;ratioP2
16626;SDS011;8427;52.204;7.202;2023-02-28T00:01:21;44.40;;;40.10;;
16626;SDS011;8427;52.204;7.202;2023-02-28T00:03:49;44.80;;;40.30;;
16626;SDS011;8427;52.204;7.202;2023-02-28T00:06:17;45.00;;;40.45;;
16626;SDS011;8427;52.204;7.202;2023-02-28T00:08:45;55.60;;;41.90;;
16626;SDS011;8427;52.204;7.202;2023-02-28T00:11:13;45.10;;;40.60;;
16626;SDS011;8427;52.204;7.202;2023-02-28T00:13:44;45.28;;;40.58;;
16626;SDS011;8427;52.204;7.202;2023-02-28T00:16:16;44.20;;;40.00;;
16626;SDS011;8427;52.204;7.202;2023-02-28T00:18:46;44.37;;;40.07;;
16626;SDS011;8427;52.204;7.202;2023-02-28T00:21:14;43.93;;;39.97;;
16626;SDS011;8427;52.204;7.202;2023-02-28T00:23:43;45.20;;;40.72;;
16626;SDS011;8427;52.204;7.202;2023-02-28T00:26:10;43.80;;;39.90;;
16626;SDS011;8427;52.204;7.202;2023-02-28T00:28:38;44.03;;;39.92;;
16626;SDS011;8427;52.204;7.202;2023-02-28T00:31:08;45.70;;;40.88;;
16626;SDS011;8427;52.204;7.202;2023-02-28T00:33:36;44.63;;;40.33;;
16626;SDS011;8427;52.204;7.202;2023-02-28T00:36:04;45.10;;;40.60;;
16626;SDS011;8427;52.204;7.202;2023-02-28T00:38:34;46.03;;;41.10;;
16626;SDS011;8427;52.204;7.202;2023-02-28T00:41:02;44.03;;;40.10;;
16626;SDS011;8427;52.204;7.202;2023-02-28T00:43:31;46.07;;;41.10;;
16626;SDS011;8427;52.204;7.202;2023-02-28T00:46:00;44.50;;;40.40;;
16626;SDS011;8427;52.204;7.202;2023-02-28T00:48:29;44.83;;;40.42;;
16626;SDS011;8427;52.204;7.202;2023-02-28T00:50:57;44.80;;;40.45;;
16626;SDS011;8427;52.204;7.202;2023-02-28T00:53:25;52.40;;;42.22;;
16626;SDS011;8427;52.204;7.202;2023-02-28T00:55:53;44.20;;;40.17;;
16626;SDS011;8427;52.204;7.202;2023-02-28T00:58:21;44.63;;;40.33;;
16626;SDS011;8427;52.204;7.202;2023-02-28T01:00:50;44.08;;;40.03;;
16626;SDS011;8427;52.204;7.202;2023-02-28T01:03:19;45.40;;;40.80;;
16626;SDS011;8427;52.204;7.202;2023-02-28T01:05:49;45.80;;;41.00;;
16626;SDS011;8427;52.204;7.202;2023-02-28T01:08:19;44.40;;;40.30;;
16626;SDS011;8427;52.204;7.202;2023-02-28T01:10:47;44.50;;;40.40;;
16626;SDS011;8427;52.204;7.202;2023-02-28T01:13:15;45.22;;;40.72;;
16626;SDS011;8427;52.204;7.202;2023-02-28T01:15:46;44.03;;;40.07;;
16626;SDS011;8427;52.204;7.202;2023-02-28T01:18:17;44.53;;;40.35;;
16626;SDS011;8427;52.204;7.202;2023-02-28T01:20:45;44.60;;;40.40;;
16626;SDS011;8427;52.204;7.202;2023-02-28T01:23:15;44.75;;;40.45;;
16626;SDS011;8427;52.204;7.202;2023-02-28T01:25:43;44.63;;;40.45;;
16626;SDS011;8427;52.204;7.202;2023-02-28T01:28:11;44.90;;;40.60;;
16626;SDS011;8427;52.204;7.202;2023-02-28T01:30:38;44.90;;;40.60;;
16626;SDS011;8427;52.204;7.202;2023-02-28T01:33:06;44.90;;;40.50;;
16626;SDS011;8427;52.204;7.202;2023-02-28T01:35:35;44.30;;;40.20;;
16626;SDS011;8427;52.204;7.202;2023-02-28T01:38:03;45.13;;;40.53;;
16626;SDS011;8427;52.204;7.202;2023-02-28T01:40:48;44.97;;;40.58;;
16626;SDS011;8427;52.204;7.202;2023-02-28T01:43:19;44.08;;;40.15;;
16626;SDS011;8427;52.204;7.202;2023-02-28T01:45:49;55.95;;;42.38;;
16626;SDS011;8427;52.204;7.202;2023-02-28T01:48:17;43.30;;;39.73;;
16626;SDS011;8427;52.204;7.202;2023-02-28T01:50:46;45.70;;;40.90;;
16626;SDS011;8427;52.204;7.202;2023-02-28T01:53:16;45.40;;;40.80;;
16626;SDS011;8427;52.204;7.202;2023-02-28T01:55:49;45.60;;;40.90;;
16626;SDS011;8427;52.204;7.202;2023-02-28T01:58:20;44.15;;;40.15;;
16626;SDS011;8427;52.204;7.202;2023-02-28T02:00:48;45.90;;;41.10;;
16626;SDS011;8427;52.204;7.202;2023-02-28T02:03:17;44.05;;;40.17;;
16626;SDS011;8427;52.204;7.202;2023-02-28T02:05:46;44.28;;;40.28;;
16626;SDS011;8427;52.204;7.202;2023-02-28T02:08:15;44.30;;;40.20;;
16626;SDS011;8427;52.204;7.202;2023-02-28T02:10:47;44.30;;;40.22;;
16626;SDS011;8427;52.204;7.202;2023-02-28T02:13:24;44.30;;;40.20;;
16626;SDS011;8427;52.204;7.202;2023-02-28T02:16:04;44.60;;;40.40;;
16626;SDS011;8427;52.204;7.202;2023-02-28T02:18:40;46.40;;;41.30;;
16626;SDS011;8427;52.204;7.202;2023-02-28T02:21:16;43.75;;;39.85;;
16626;SDS011;8427;52.204;7.202;2023-02-28T02:24:19;44.25;;;40.15;;
16626;SDS011;8427;52.204;7.202;2023-02-28T02:27:07;45.10;;;40.70;;
16626;SDS011;8427;52.204;7.202;2023-02-28T02:29:58;46.10;;;41.20;;
16626;SDS011;8427;52.204;7.202;2023-02-28T02:36:05;45.78;;;40.97;;
16626;SDS011;8427;52.204;7.202;2023-02-28T02:38:41;62.22;;;43.10;;
16626;SDS011;8427;52.204;7.202;2023-02-28T02:41:16;43.83;;;40.03;;
16626;SDS011;8427;52.204;7.202;2023-02-28T02:43:51;45.60;;;40.95;;
16626;SDS011;8427;52.204;7.202;2023-02-28T02:46:25;45.03;;;40.60;;
16626;SDS011;8427;52.204;7.202;2023-02-28T02:48:56;65.30;;;43.50;;
16626;SDS011;8427;52.204;7.202;2023-02-28T02:51:29;45.30;;;40.80;;
16626;SDS011;8427;52.204;7.202;2023-02-28T02:54:00;44.10;;;40.10;;
16626;SDS011;8427;52.204;7.202;2023-02-28T02:56:32;44.60;;;40.40;;
16626;SDS011;8427;52.204;7.202;2023-02-28T02:59:02;51.40;;;41.85;;
16626;SDS011;8427;52.204;7.202;2023-02-28T03:01:35;45.10;;;40.70;;
16626;SDS011;8427;52.204;7.202;2023-02-28T03:04:06;44.83;;;40.50;;
16626;SDS011;8427;52.204;7.202;2023-02-28T03:06:37;45.17;;;40.78;;
16626;SDS011;8427;52.204;7.202;2023-02-28T03:09:05;47.38;;;41.80;;
16626;SDS011;8427;52.204;7.202;2023-02-28T03:11:34;44.78;;;40.50;;
16626;SDS011;8427;52.204;7.202;2023-02-28T03:14:10;44.83;;;40.40;;
16626;SDS011;8427;52.204;7.202;2023-02-28T03:19:54;45.00;;;40.70;;
16626;SDS011;8427;52.204;7.202;2023-02-28T03:25:30;44.05;;;40.03;;
16626;SDS011;8427;52.204;7.202;2023-02-28T03:28:05;44.45;;;40.28;;
16626;SDS011;8427;52.204;7.202;2023-02-28T03:30:39;44.90;;;40.50;;
16626;SDS011;8427;52.204;7.202;2023-02-28T03:33:14;46.03;;;41.13;;
16626;SDS011;8427;52.204;7.202;2023-02-28T03:35:45;44.40;;;40.30;;
16626;SDS011;8427;52.204;7.202;2023-02-28T03:38:20;49.92;;;41.60;;
16626;SDS011;8427;52.204;7.202;2023-02-28T03:40:57;46.20;;;41.20;;
16626;SDS011;8427;52.204;7.202;2023-02-28T03:43:29;45.20;;;40.60;;
16626;SDS011;8427;52.204;7.202;2023-02-28T03:46:00;44.90;;;40.50;;
16626;SDS011;8427;52.204;7.202;2023-02-28T03:48:33;47.10;;;39.50;;
16626;SDS011;8427;52.204;7.202;2023-02-28T03:51:06;42.90;;;38.67;;
16626;SDS011;8427;52.204;7.202;2023-02-28T03:53:37;44.25;;;39.95;;
16626;SDS011;8427;52.204;7.202;2023-02-28T03:56:09;44.40;;;40.20;;
16626;SDS011;8427;52.204;7.202;2023-02-28T03:58:44;53.45;;;41.65;;
16626;SDS011;8427;52.204;7.202;2023-02-28T04:01:17;44.75;;;40.35;;
16626;SDS011;8427;52.204;7.202;2023-02-28T04:03:49;44.38;;;40.20;;
16626;SDS011;8427;52.204;7.202;2023-02-28T04:06:18;42.87;;;39.00;;
16626;SDS011;8427;52.204;7.202;2023-02-28T04:08:49;44.28;;;39.58;;
16626;SDS011;8427;52.204;7.202;2023-02-28T04:11:20;43.72;;;39.53;;
16626;SDS011;8427;52.204;7.202;2023-02-28T04:13:50;43.53;;;39.65;;
16626;SDS011;8427;52.204;7.202;2023-02-28T04:16:18;43.00;;;39.30;;
16626;SDS011;8427;52.204;7.202;2023-02-28T04:19:00;42.00;;;38.20;;
16626;SDS011;8427;52.204;7.202;2023-02-28T04:21:29;40.00;;;37.00;;
16626;SDS011;8427;52.204;7.202;2023-02-28T04:24:00;40.80;;;37.50;;
16626;SDS011;8427;52.204;7.202;2023-02-28T04:26:28;44.08;;;39.78;;
16626;SDS011;8427;52.204;7.202;2023-02-28T04:28:57;45.50;;;40.10;;
16626;SDS011;8427;52.204;7.202;2023-02-28T04:31:25;40.63;;;37.40;;
16626;SDS011;8427;52.204;7.202;2023-02-28T04:33:54;42.28;;;38.22;;
16626;SDS011;8427;52.204;7.202;2023-02-28T04:36:22;42.72;;;39.05;;
16626;SDS011;8427;52.204;7.202;2023-02-28T04:38:50;61.60;;;42.00;;
16626;SDS011;8427;52.204;7.202;2023-02-28T04:41:19;43.40;;;39.20;;
16626;SDS011;8427;52.204;7.202;2023-02-28T04:43:48;42.90;;;39.30;;
16626;SDS011;8427;52.204;7.202;2023-02-28T04:46:18;43.03;;;39.40;;
16626;SDS011;8427;52.204;7.202;2023-02-28T04:48:46;65.30;;;40.40;;
16626;SDS011;8427;52.204;7.202;2023-02-28T04:51:14;42.80;;;38.80;;
16626;SDS011;8427;52.204;7.202;2023-02-28T04:53:44;42.70;;;38.90;;
16626;SDS011;8427;52.204;7.202;2023-02-28T04:56:13;43.33;;;39.07;;
16626;SDS011;8427;52.204;7.202;2023-02-28T04:58:44;42.47;;;38.88;;
16626;SDS011;8427;52.204;7.202;2023-02-28T05:01:16;42.83;;;39.20;;
16626;SDS011;8427;52.204;7.202;2023-02-28T05:03:46;43.50;;;39.45;;
16626;SDS011;8427;52.204;7.202;2023-02-28T05:06:14;42.58;;;39.05;;
16626;SDS011;8427;52.204;7.202;2023-02-28T05:08:42;68.50;;;42.53;;
16626;SDS011;8427;52.204;7.202;2023-02-28T05:11:14;42.47;;;39.00;;
16626;SDS011;8427;52.204;7.202;2023-02-28T05:13:46;43.00;;;39.20;;
16626;SDS011;8427;52.204;7.202;2023-02-28T05:16:14;43.00;;;39.10;;
16626;SDS011;8427;52.204;7.202;2023-02-28T05:18:43;58.77;;;39.93;;
16626;SDS011;8427;52.204;7.202;2023-02-28T05:21:22;40.90;;;37.27;;
16626;SDS011;8427;52.204;7.202;2023-02-28T05:23:52;44.47;;;39.75;;
16626;SDS011;8427;52.204;7.202;2023-02-28T05:26:22;42.00;;;37.87;;
16626;SDS011;8427;52.204;7.202;2023-02-28T05:28:52;47.80;;;38.97;;
16626;SDS011;8427;52.204;7.202;2023-02-28T05:31:20;40.93;;;37.03;;
16626;SDS011;8427;52.204;7.202;2023-02-28T05:33:48;38.90;;;36.10;;
16626;SDS011;8427;52.204;7.202;2023-02-28T05:36:16;39.70;;;36.80;;
16626;SDS011;8427;52.204;7.202;2023-02-28T05:38:45;68.68;;;40.42;;
16626;SDS011;8427;52.204;7.202;2023-02-28T05:41:13;41.10;;;37.20;;
16626;SDS011;8427;52.204;7.202;2023-02-28T05:43:42;41.25;;;37.70;;
16626;SDS011;8427;52.204;7.202;2023-02-28T05:46:11;39.67;;;36.63;;
16626;SDS011;8427;52.204;7.202;2023-02-28T05:48:40;55.10;;;40.42;;
16626;SDS011;8427;52.204;7.202;2023-02-28T05:51:09;46.00;;;39.90;;
16626;SDS011;8427;52.204;7.202;2023-02-28T05:53:37;40.00;;;36.90;;
16626;SDS011;8427;52.204;7.202;2023-02-28T05:56:05;38.43;;;35.83;;
16626;SDS011;8427;52.204;7.202;2023-02-28T05:58:33;38.67;;;35.77;;
16626;SDS011;8427;52.204;7.202;2023-02-28T06:01:19;37.50;;;35.13;;
16626;SDS011;8427;52.204;7.202;2023-02-28T06:03:50;40.30;;;37.38;;
16626;SDS011;8427;52.204;7.202;2023-02-28T06:06:18;38.70;;;36.10;;
16626;SDS011;8427;52.204;7.202;2023-02-28T06:08:46;49.90;;;38.97;;
16626;SDS011;8427;52.204;7.202;2023-02-28T06:11:14;47.87;;;38.30;;
16626;SDS011;8427;52.204;7.202;2023-02-28T06:13:42;41.22;;;37.83;;
16626;SDS011;8427;52.204;7.202;2023-02-28T06:16:10;41.30;;;38.00;;
16626;SDS011;8427;52.204;7.202;2023-02-28T06:18:39;55.90;;;39.80;;
16626;SDS011;8427;52.204;7.202;2023-02-28T06:21:07;41.00;;;37.60;;
16626;SDS011;8427;52.204;7.202;2023-02-28T06:23:35;50.63;;;39.90;;
16626;SDS011;8427;52.204;7.202;2023-02-28T06:26:03;40.90;;;37.70;;
16626;SDS011;8427;52.204;7.202;2023-02-28T06:28:31;41.70;;;37.60;;
16626;SDS011;8427;52.204;7.202;2023-02-28T06:30:59;41.67;;;38.28;;
16626;SDS011;8427;52.204;7.202;2023-02-28T06:33:32;42.20;;;38.60;;
16626;SDS011;8427;52.204;7.202;2023-02-28T06:36:01;44.65;;;39.85;;
16626;SDS011;8427;52.204;7.202;2023-02-28T06:38:30;42.10;;;38.50;;
16626;SDS011;8427;52.204;7.202;2023-02-28T06:40:59;42.40;;;38.70;;
16626;SDS011;8427;52.204;7.202;2023-02-28T06:43:28;41.80;;;38.60;;
16626;SDS011;8427;52.204;7.202;2023-02-28T06:45:56;42.10;;;38.70;;
16626;SDS011;8427;52.204;7.202;2023-02-28T06:48:26;39.97;;;37.03;;
16626;SDS011;8427;52.204;7.202;2023-02-28T06:51:02;41.40;;;38.10;;
16626;SDS011;8427;52.204;7.202;2023-02-28T06:53:31;41.90;;;38.50;;
16626;SDS011;8427;52.204;7.202;2023-02-28T06:55:59;40.70;;;37.70;;
16626;SDS011;8427;52.204;7.202;2023-02-28T06:58:30;39.20;;;36.30;;
16626;SDS011;8427;52.204;7.202;2023-02-28T07:00:58;38.80;;;36.15;;
16626;SDS011;8427;52.204;7.202;2023-02-28T07:03:26;41.00;;;37.45;;
16626;SDS011;8427;52.204;7.202;2023-02-28T07:05:54;38.85;;;36.15;;
16626;SDS011;8427;52.204;7.202;2023-02-28T07:08:24;40.47;;;36.80;;
16626;SDS011;8427;52.204;7.202;2023-02-28T07:10:53;38.85;;;36.17;;
16626;SDS011;8427;52.204;7.202;2023-02-28T07:13:22;39.08;;;36.40;;
16626;SDS011;8427;52.204;7.202;2023-02-28T07:15:53;40.60;;;37.60;;
16626;SDS011;8427;52.204;7.202;2023-02-28T07:18:22;39.77;;;36.40;;
16626;SDS011;8427;52.204;7.202;2023-02-28T07:20:51;40.25;;;36.95;;
16626;SDS011;8427;52.204;7.202;2023-02-28T07:23:19;40.10;;;37.10;;
16626;SDS011;8427;52.204;7.202;2023-02-28T07:25:49;38.90;;;36.30;;
16626;SDS011;8427;52.204;7.202;2023-02-28T07:28:17;41.43;;;37.13;;
16626;SDS011;8427;52.204;7.202;2023-02-28T07:30:45;40.08;;;36.85;;
16626;SDS011;8427;52.204;7.202;2023-02-28T07:33:14;40.42;;;37.30;;
16626;SDS011;8427;52.204;7.202;2023-02-28T07:35:42;39.30;;;36.60;;
16626;SDS011;8427;52.204;7.202;2023-02-28T07:38:10;38.10;;;35.43;;
16626;SDS011;8427;52.204;7.202;2023-02-28T07:40:39;38.43;;;35.57;;
16626;SDS011;8427;52.204;7.202;2023-02-28T07:43:09;37.00;;;34.70;;
16626;SDS011;8427;52.204;7.202;2023-02-28T07:45:36;37.47;;;35.07;;
16626;SDS011;8427;52.204;7.202;2023-02-28T07:48:04;39.50;;;36.70;;
16626;SDS011;8427;52.204;7.202;2023-02-28T07:50:32;38.17;;;35.47;;
16626;SDS011;8427;52.204;7.202;2023-02-28T07:53:00;37.93;;;35.47;;
16626;SDS011;8427;52.204;7.202;2023-02-28T07:55:28;37.27;;;34.90;;
16626;SDS011;8427;52.204;7.202;2023-02-28T07:57:56;36.43;;;34.30;;
16626;SDS011;8427;52.204;7.202;2023-02-28T08:00:25;38.33;;;35.40;;
16626;SDS011;8427;52.204;7.202;2023-02-28T08:02:55;39.67;;;36.67;;
16626;SDS011;8427;52.204;7.202;2023-02-28T08:05:22;39.90;;;37.00;;
16626;SDS011;8427;52.204;7.202;2023-02-28T08:07:50;41.10;;;38.10;;
16626;SDS011;8427;52.204;7.202;2023-02-28T08:10:19;43.08;;;39.13;;
16626;SDS011;8427;52.204;7.202;2023-02-28T08:12:47;42.65;;;39.05;;
16626;SDS011;8427;52.204;7.202;2023-02-28T08:15:15;44.95;;;40.65;;
16626;SDS011;8427;52.204;7.202;2023-02-28T08:17:44;44.10;;;40.20;;
16626;SDS011;8427;52.204;7.202;2023-02-28T08:20:12;45.50;;;40.90;;
16626;SDS011;8427;52.204;7.202;2023-02-28T08:22:40;44.10;;;40.10;;
16626;SDS011;8427;52.204;7.202;2023-02-28T08:25:11;44.65;;;40.45;;
16626;SDS011;8427;52.204;7.202;2023-02-28T08:27:39;44.50;;;40.40;;
16626;SDS011;8427;52.204;7.202;2023-02-28T08:30:07;44.33;;;40.28;;
16626;SDS011;8427;52.204;7.202;2023-02-28T08:32:37;44.60;;;40.50;;
16626;SDS011;8427;52.204;7.202;2023-02-28T08:35:08;44.58;;;40.40;;
16626;SDS011;8427;52.204;7.202;2023-02-28T08:37:36;46.30;;;41.50;;
16626;SDS011;8427;52.204;7.202;2023-02-28T08:40:05;44.60;;;40.58;;
16626;SDS011;8427;52.204;7.202;2023-02-28T08:42:34;44.30;;;40.30;;
16626;SDS011;8427;52.204;7.202;2023-02-28T08:45:02;43.92;;;40.13;;
16626;SDS011;8427;52.204;7.202;2023-02-28T08:47:31;44.60;;;40.50;;
16626;SDS011;8427;52.204;7.202;2023-02-28T08:49:59;44.10;;;40.20;;
16626;SDS011;8427;52.204;7.202;2023-02-28T08:52:28;43.63;;;39.97;;
16626;SDS011;8427;52.204;7.202;2023-02-28T08:54:56;44.10;;;40.20;;
16626;SDS011;8427;52.204;7.202;2023-02-28T08:57:24;43.70;;;40.08;;
16626;SDS011;8427;52.204;7.202;2023-02-28T08:59:53;43.45;;;39.88;;
16626;SDS011;8427;52.204;7.202;2023-02-28T09:02:21;45.37;;;40.87;;
16626;SDS011;8427;52.204;7.202;2023-02-28T09:04:49;44.60;;;40.53;;
16626;SDS011;8427;52.204;7.202;2023-02-28T09:07:17;44.45;;;40.45;;
16626;SDS011;8427;52.204;7.202;2023-02-28T09:09:46;44.00;;;40.20;;
16626;SDS011;8427;52.204;7.202;2023-02-28T09:12:21;45.15;;;40.72;;
16626;SDS011;8427;52.204;7.202;2023-02-28T09:14:49;44.50;;;40.50;;
16626;SDS011;8427;52.204;7.202;2023-02-28T09:17:17;44.38;;;40.47;;
16626;SDS011;8427;52.204;7.202;2023-02-28T09:19:47;44.40;;;40.50;;
16626;SDS011;8427;52.204;7.202;2023-02-28T09:22:15;46.40;;;41.50;;
16626;SDS011;8427;52.204;7.202;2023-02-28T09:24:43;43.80;;;40.20;;
16626;SDS011;8427;52.204;7.202;2023-02-28T09:27:13;48.05;;;42.95;;
16626;SDS011;8427;52.204;7.202;2023-02-28T09:29:41;45.30;;;41.00;;
16626;SDS011;8427;52.204;7.202;2023-02-28T09:32:09;44.97;;;40.88;;
16626;SDS011;8427;52.204;7.202;2023-02-28T09:34:37;45.95;;;41.45;;
16626;SDS011;8427;52.204;7.202;2023-02-28T09:37:05;45.97;;;41.47;;
16626;SDS011;8427;52.204;7.202;2023-02-28T09:39:33;46.05;;;41.45;;
16626;SDS011;8427;52.204;7.202;2023-02-28T09:42:01;46.10;;;41.50;;
16626;SDS011;8427;52.204;7.202;2023-02-28T09:44:32;45.00;;;41.00;;
16626;SDS011;8427;52.204;7.202;2023-02-28T09:47:05;47.15;;;42.17;;
16626;SDS011;8427;52.204;7.202;2023-02-28T09:49:40;44.80;;;40.80;;
16626;SDS011;8427;52.204;7.202;2023-02-28T09:52:13;44.60;;;40.70;;
16626;SDS011;8427;52.204;7.202;2023-02-28T09:54:45;44.33;;;40.53;;
16626;SDS011;8427;52.204;7.202;2023-02-28T09:57:15;45.03;;;41.00;;
16626;SDS011;8427;52.204;7.202;2023-02-28T09:59:54;44.50;;;40.70;;
16626;SDS011;8427;52.204;7.202;2023-02-28T10:02:46;43.90;;;40.30;;
16626;SDS011;8427;52.204;7.202;2023-02-28T10:05:36;44.40;;;40.50;;
16626;SDS011;8427;52.204;7.202;2023-02-28T10:08:11;45.35;;;41.17;;
16626;SDS011;8427;52.204;7.202;2023-02-28T10:10:43;43.95;;;40.35;;
16626;SDS011;8427;52.204;7.202;2023-02-28T10:13:17;44.20;;;40.50;;
16626;SDS011;8427;52.204;7.202;2023-02-28T10:15:52;44.40;;;40.60;;
16626;SDS011;8427;52.204;7.202;2023-02-28T10:18:24;45.07;;;40.97;;
16626;SDS011;8427;52.204;7.202;2023-02-28T10:20:55;44.10;;;40.40;;
16626;SDS011;8427;52.204;7.202;2023-02-28T10:23:25;44.40;;;40.60;;
16626;SDS011;8427;52.204;7.202;2023-02-28T10:25:57;44.50;;;40.70;;
16626;SDS011;8427;52.204;7.202;2023-02-28T10:28:28;44.80;;;40.70;;
16626;SDS011;8427;52.204;7.202;2023-02-28T10:30:59;44.75;;;40.85;;
16626;SDS011;8427;52.204;7.202;2023-02-28T10:33:28;44.33;;;40.63;;
16626;SDS011;8427;52.204;7.202;2023-02-28T10:35:58;45.35;;;41.17;;
16626;SDS011;8427;52.204;7.202;2023-02-28T10:38:27;44.88;;;41.05;;
16626;SDS011;8427;52.204;7.202;2023-02-28T10:41:04;44.50;;;40.70;;
16626;SDS011;8427;52.204;7.202;2023-02-28T10:43:33;45.05;;;41.15;;
16626;SDS011;8427;52.204;7.202;2023-02-28T10:46:04;45.63;;;41.33;;
16626;SDS011;8427;52.204;7.202;2023-02-28T10:48:41;46.90;;;42.10;;
16626;SDS011;8427;52.204;7.202;2023-02-28T10:51:12;45.22;;;41.17;;
16626;SDS011;8427;52.204;7.202;2023-02-28T10:53:47;45.50;;;41.50;;
16626;SDS011;8427;52.204;7.202;2023-02-28T10:56:27;44.20;;;40.60;;
16626;SDS011;8427;52.204;7.202;2023-02-28T10:58:56;52.35;;;42.80;;
16626;SDS011;8427;52.204;7.202;2023-02-28T11:01:35;45.15;;;41.13;;
16626;SDS011;8427;52.204;7.202;2023-02-28T11:04:16;46.40;;;41.80;;
16626;SDS011;8427;52.204;7.202;2023-02-28T11:06:45;44.20;;;40.60;;
16626;SDS011;8427;52.204;7.202;2023-02-28T11:09:18;45.90;;;41.50;;
16626;SDS011;8427;52.204;7.202;2023-02-28T11:11:49;46.17;;;41.67;;
16626;SDS011;8427;52.204;7.202;2023-02-28T11:14:19;45.90;;;41.60;;
16626;SDS011;8427;52.204;7.202;2023-02-28T11:16:50;44.90;;;41.00;;
16626;SDS011;8427;52.204;7.202;2023-02-28T11:19:20;45.63;;;41.42;;
16626;SDS011;8427;52.204;7.202;2023-02-28T11:21:53;54.50;;;43.20;;
16626;SDS011;8427;52.204;7.202;2023-02-28T11:24:24;45.30;;;41.30;;
16626;SDS011;8427;52.204;7.202;2023-02-28T11:26:55;43.88;;;40.47;;
16626;SDS011;8427;52.204;7.202;2023-02-28T11:29:25;46.73;;;42.00;;
16626;SDS011;8427;52.204;7.202;2023-02-28T11:32:03;46.05;;;41.55;;
16626;SDS011;8427;52.204;7.202;2023-02-28T11:34:43;46.83;;;41.95;;
16626;SDS011;8427;52.204;7.202;2023-02-28T11:37:12;45.35;;;41.28;;
16626;SDS011;8427;52.204;7.202;2023-02-28T11:39:42;46.75;;;41.97;;
16626;SDS011;8427;52.204;7.202;2023-02-28T11:42:14;47.22;;;42.25;;
16626;SDS011;8427;52.204;7.202;2023-02-28T11:45:02;45.00;;;41.10;;
16626;SDS011;8427;52.204;7.202;2023-02-28T11:47:53;45.00;;;41.10;;
16626;SDS011;8427;52.204;7.202;2023-02-28T11:50:32;46.83;;;42.33;;
16626;SDS011;8427;52.204;7.202;2023-02-28T11:53:17;48.15;;;43.15;;
16626;SDS011;8427;52.204;7.202;2023-02-28T11:55:54;47.77;;;42.77;;
16626;SDS011;8427;52.204;7.202;2023-02-28T11:58:31;52.58;;;44.00;;
16626;SDS011;8427;52.204;7.202;2023-02-28T12:01:12;50.35;;;43.63;;
16626;SDS011;8427;52.204;7.202;2023-02-28T12:03:56;48.60;;;43.30;;
16626;SDS011;8427;52.204;7.202;2023-02-28T12:06:39;47.03;;;42.38;;
16626;SDS011;8427;52.204;7.202;2023-02-28T12:09:15;47.78;;;42.80;;
16626;SDS011;8427;52.204;7.202;2023-02-28T12:11:59;46.60;;;42.20;;
16626;SDS011;8427;52.204;7.202;2023-02-28T12:14:43;46.30;;;41.80;;
16626;SDS011;8427;52.204;7.202;2023-02-28T12:17:27;46.05;;;41.85;;
16626;SDS011;8427;52.204;7.202;2023-02-28T12:20:12;46.53;;;42.08;;
16626;SDS011;8427;52.204;7.202;2023-02-28T12:22:47;50.30;;;43.30;;
16626;SDS011;8427;52.204;7.202;2023-02-28T12:25:28;45.10;;;41.30;;
16626;SDS011;8427;52.204;7.202;2023-02-28T12:28:08;45.27;;;41.30;;
16626;SDS011;8427;52.204;7.202;2023-02-28T12:30:39;44.85;;;41.15;;
16626;SDS011;8427;52.204;7.202;2023-02-28T12:33:14;45.83;;;41.70;;
16626;SDS011;8427;52.204;7.202;2023-02-28T12:35:49;45.10;;;41.30;;
16626;SDS011;8427;52.204;7.202;2023-02-28T12:38:22;47.00;;;42.40;;
16626;SDS011;8427;52.204;7.202;2023-02-28T12:40:53;45.40;;;41.40;;
16626;SDS011;8427;52.204;7.202;2023-02-28T12:43:25;44.90;;;41.10;;
16626;SDS011;8427;52.204;7.202;2023-02-28T12:45:58;45.45;;;41.45;;
16626;SDS011;8427;52.204;7.202;2023-02-28T12:48:31;45.58;;;41.40;;
16626;SDS011;8427;52.204;7.202;2023-02-28T12:51:06;45.85;;;41.58;;
16626;SDS011;8427;52.204;7.202;2023-02-28T12:53:37;44.25;;;40.80;;
16626;SDS011;8427;52.204;7.202;2023-02-28T12:56:15;45.70;;;41.58;;
16626;SDS011;8427;52.204;7.202;2023-02-28T12:58:45;51.85;;;42.90;;
16626;SDS011;8427;52.204;7.202;2023-02-28T13:01:23;45.60;;;41.50;;
16626;SDS011;8427;52.204;7.202;2023-02-28T13:04:08;46.00;;;41.80;;
16626;SDS011;8427;52.204;7.202;2023-02-28T13:07:22;46.72;;;42.13;;
16626;SDS011;8427;52.204;7.202;2023-02-28T13:10:37;46.50;;;42.20;;
16626;SDS011;8427;52.204;7.202;2023-02-28T13:13:13;57.30;;;44.13;;
16626;SDS011;8427;52.204;7.202;2023-02-28T13:16:00;46.45;;;42.00;;
16626;SDS011;8427;52.204;7.202;2023-02-28T13:18:31;47.83;;;42.75;;
16626;SDS011;8427;52.204;7.202;2023-02-28T13:21:02;47.97;;;42.80;;
16626;SDS011;8427;52.204;7.202;2023-02-28T13:23:38;46.25;;;41.85;;
16626;SDS011;8427;52.204;7.202;2023-02-28T13:29:31;49.05;;;43.30;;
16626;SDS011;8427;52.204;7.202;2023-02-28T13:35:12;46.90;;;42.28;;
16626;SDS011;8427;52.204;7.202;2023-02-28T13:38:21;46.83;;;42.25;;
16626;SDS011;8427;52.204;7.202;2023-02-28T13:44:09;46.13;;;41.80;;
16626;SDS011;8427;52.204;7.202;2023-02-28T13:49:35;47.50;;;42.50;;
16626;SDS011;8427;52.204;7.202;2023-02-28T13:52:06;45.97;;;41.65;;
16626;SDS011;8427;52.204;7.202;2023-02-28T13:54:45;48.10;;;42.92;;
16626;SDS011;8427;52.204;7.202;2023-02-28T13:57:28;45.78;;;41.60;;
16626;SDS011;8427;52.204;7.202;2023-02-28T14:00:09;47.55;;;42.55;;
16626;SDS011;8427;52.204;7.202;2023-02-28T14:02:51;46.00;;;41.70;;
16626;SDS011;8427;52.204;7.202;2023-02-28T14:05:45;46.20;;;41.83;;
16626;SDS011;8427;52.204;7.202;2023-02-28T14:08:16;45.75;;;41.60;;
16626;SDS011;8427;52.204;7.202;2023-02-28T14:10:48;46.72;;;42.10;;
16626;SDS011;8427;52.204;7.202;2023-02-28T14:13:37;46.60;;;42.10;;
16626;SDS011;8427;52.204;7.202;2023-02-28T14:16:13;45.45;;;41.45;;
16626;SDS011;8427;52.204;7.202;2023-02-28T14:18:47;49.67;;;42.97;;
16626;SDS011;8427;52.204;7.202;2023-02-28T14:21:22;46.70;;;42.10;;
16626;SDS011;8427;52.204;7.202;2023-02-28T14:27:06;45.50;;;41.40;;
16626;SDS011;8427;52.204;7.202;2023-02-28T14:30:00;46.70;;;42.05;;
16626;SDS011;8427;52.204;7.202;2023-02-28T14:32:43;46.60;;;42.10;;
16626;SDS011;8427;52.204;7.202;2023-02-28T14:35:21;45.37;;;41.40;;
16626;SDS011;8427;52.204;7.202;2023-02-28T14:38:04;45.60;;;41.35;;
16626;SDS011;8427;52.204;7.202;2023-02-28T14:40:33;45.50;;;41.30;;
16626;SDS011;8427;52.204;7.202;2023-02-28T14:43:03;45.30;;;41.35;;
16626;SDS011;8427;52.204;7.202;2023-02-28T14:45:33;49.20;;;42.90;;
16626;SDS011;8427;52.204;7.202;2023-02-28T14:48:08;47.50;;;42.50;;
16626;SDS011;8427;52.204;7.202;2023-02-28T14:50:37;46.45;;;41.88;;
16626;SDS011;8427;52.204;7.202;2023-02-28T14:53:05;45.08;;;41.17;;
16626;SDS011;8427;52.204;7.202;2023-02-28T14:55:43;44.20;;;40.70;;
16626;SDS011;8427;52.204;7.202;2023-02-28T14:58:18;47.50;;;42.40;;
16626;SDS011;8427;52.204;7.202;2023-02-28T15:00:50;45.78;;;41.47;;
16626;SDS011;8427;52.204;7.202;2023-02-28T15:03:22;44.67;;;40.97;;
16626;SDS011;8427;52.204;7.202;2023-02-28T15:05:52;45.63;;;41.40;;
16626;SDS011;8427;52.204;7.202;2023-02-28T15:08:22;46.50;;;41.87;;
16626;SDS011;8427;52.204;7.202;2023-02-28T15:10:51;44.80;;;41.00;;
16626;SDS011;8427;52.204;7.202;2023-02-28T15:13:22;46.60;;;41.90;;
16626;SDS011;8427;52.204;7.202;2023-02-28T15:15:51;45.70;;;41.40;;
16626;SDS011;8427;52.204;7.202;2023-02-28T15:18:33;44.67;;;40.97;;
16626;SDS011;8427;52.204;7.202;2023-02-28T15:21:11;45.97;;;41.63;;
16626;SDS011;8427;52.204;7.202;2023-02-28T15:23:44;45.45;;;41.45;;
16626;SDS011;8427;52.204;7.202;2023-02-28T15:26:16;44.40;;;40.70;;
16626;SDS011;8427;52.204;7.202;2023-02-28T15:28:47;58.05;;;43.28;;